WetterOnline ( https://www.wetteronline.de )

Wetter aktuell Wünsch

Aktuelles Wetter: Leipzig/Halle (136m)

6-stündlich | Neueste Meldungen
Ortszeit Temperatur Wetter
Mo, 20.05. 20:00 18.0° C leichte Schauer
Mo, 20.05. 14:00 21.1° C wolkig
Mo, 20.05. 8:00 14.1° C wolkig
Mo, 20.05. 2:00 15.0° C leicht bewölkt
So, 19.05. 20:00 22.1° C leicht bewölkt
So, 19.05. 14:00 22.5° C leicht bewölkt
So, 19.05. 8:00 13.8° C fast wolkenlos
So, 19.05. 2:00 11.3° C leicht bewölkt
Ortszeit Temperatur Wetter
Mo, 20.05. 20:20 18° C bewölkt
Mo, 20.05. 20:00 18.0° C leichte Schauer
Mo, 20.05. 19:50 18.0° C bedeckt
Mo, 20.05. 19:40 18.3° C leichter Regen
Mo, 20.05. 19:30 18.6° C bewölkt
Mo, 20.05. 19:20 18.6° C bewölkt
Mo, 20.05. 19:00 18.6° C wolkig, nach Regen
Mo, 20.05. 18:30 18.2° C bedeckt
Mo, 20.05. 18:00 19.3° C bewölkt, nach Regen
Mo, 20.05. 17:30 19.9° C bewölkt
Mo, 20.05. 17:00 20.2° C wolkig, nach Regen
Ortszeit Relative Feuchte Sichtweite
Mo, 20.05. 20:00 84% 25 km
Mo, 20.05. 14:00 64% 22 km
Mo, 20.05. 8:00 90% 12 km
Mo, 20.05. 2:00 82% 20 km
So, 19.05. 20:00 50% 50 km
So, 19.05. 14:00 49% 40 km
So, 19.05. 8:00 76% 20 km
So, 19.05. 2:00 85% 25 km
Ortszeit Relative Feuchte Sichtweite
Mo, 20.05. 20:20 83% >10 km
Mo, 20.05. 20:00 84% 25 km
Mo, 20.05. 19:50 84% -
Mo, 20.05. 19:40 81% -
Mo, 20.05. 19:30 76% 35 km
Mo, 20.05. 19:20 76% -
Mo, 20.05. 19:00 69% 30 km
Mo, 20.05. 18:30 74% 35 km
Mo, 20.05. 18:00 69% 40 km
Mo, 20.05. 17:30 64% 35 km
Mo, 20.05. 17:00 64% 25 km
Ortszeit Niederschlagsmenge Niederschlagsart
Mo, 20.05. 20:00 0.3 l/m2 in 12 Std. Regen
Mo, 20.05. 14:00 0.0 l/m2 in 6 Std. -
Mo, 20.05. 8:00 0.0 l/m2 in 12 Std. -
Mo, 20.05. 2:00 0.0 l/m2 in 6 Std. -
So, 19.05. 20:00 0.0 l/m2 in 12 Std. -
So, 19.05. 14:00 0.0 l/m2 in 6 Std. -
So, 19.05. 8:00 0.0 l/m2 in 12 Std. -
So, 19.05. 2:00 0.0 l/m2 in 6 Std. -
Ortszeit Niederschlagsmenge Niederschlagsart
Mo, 20.05. 20:20 keine Meldung -
Mo, 20.05. 20:00 0.1 l/m2 in 1 Std. Regen
Mo, 20.05. 19:50 keine Meldung -
Mo, 20.05. 19:40 keine Meldung -
Mo, 20.05. 19:30 0.0 l/m2 in 1 Std. -
Mo, 20.05. 19:20 keine Meldung -
Mo, 20.05. 19:00 0.1 l/m2 in 1 Std. Regen
Mo, 20.05. 18:30 0.1 l/m2 in 1 Std. -
Mo, 20.05. 18:00 0.1 l/m2 in 1 Std. Regen
Mo, 20.05. 17:30 0.1 l/m2 in 1 Std. -
Mo, 20.05. 17:00 0.1 l/m2 in 1 Std. Regen
Ortszeit Stärke Spitze Richtung
km/h Bft. km/h Grad Sektor
Mo, 20.05. 20:00 6 1 20 40° NO
Mo, 20.05. 14:00 14 3 29 70° O
Mo, 20.05. 8:00 11 2 22 360° N
Mo, 20.05. 2:00 11 2 14 80° O
So, 19.05. 20:00 11 2 32 80° O
So, 19.05. 14:00 19 3 35 100° O
So, 19.05. 8:00 17 3 22 90° O
So, 19.05. 2:00 9 2 17 50° NO
Ortszeit Stärke Spitze Richtung
km/h Bft. km/h Grad Sektor
Mo, 20.05. 20:20 7 2 - 60° NO
Mo, 20.05. 20:00 6 1 11 40° NO
Mo, 20.05. 19:50 6 1 - 40° NO
Mo, 20.05. 19:40 7 2 - 360° N
Mo, 20.05. 19:30 6 1 7 340° N
Mo, 20.05. 19:20 6 1 - 340° N
Mo, 20.05. 19:00 4 1 7 310° NW
Mo, 20.05. 18:30 0 0 7 - -
Mo, 20.05. 18:00 6 1 11 80° O
Mo, 20.05. 17:30 7 2 11 60° NO
Mo, 20.05. 17:00 7 2 18 80° O
Ortszeit Untergrenze Bedeckung Gattung
total tief tief mittel hoch
Mo, 20.05. 20:00 1080 m 7/8 6/8 Cb As -
Mo, 20.05. 14:00 1200 m 8/8 3/8 Cu As -
Mo, 20.05. 8:00 3000 m 7/8 6/8 - Ac Ci
Mo, 20.05. 2:00 7800 m 6/8 0/8 - - Ci
So, 19.05. 20:00 2100 m 4/8 1/8 Sc - Ci
So, 19.05. 14:00 1500 m 7/8 1/8 Cu - Ci
So, 19.05. 8:00 6000 m 1/8 1/8 - - Ci
So, 19.05. 2:00 8400 m 7/8 0/8 - - Ci
Ortszeit Bedeckungsgrad in Achtel und Wolkenuntergrenze
Mo, 20.05. 20:20 5-7(1050m)
Mo, 20.05. 20:00 3(1080m) 6(2400m) 3(1080m)
Mo, 20.05. 19:50 8(1020m)
Mo, 20.05. 19:40 8(1050m)
Mo, 20.05. 19:30 6(1140m) 7(1470m) 8(3300m)
Mo, 20.05. 19:20 6(1140m) 7(1470m) 8(3300m)
Mo, 20.05. 19:00 2(1500m) 4(2100m) 1(1500m)
Mo, 20.05. 18:30 8(2100m) 8(2400m)
Mo, 20.05. 18:00 1(1200m) 6(2400m) 7(3300m)
Mo, 20.05. 17:30 7(3000m) 7(3900m) 8(3900m)
Mo, 20.05. 17:00 2(1200m) 3(2400m) 6(3300m)
Ortszeit Luftdruck NN (hPa) Tendenz (hPa in 3 Std.)
Mo, 20.05. 20:00 1001 - 0,2
Mo, 20.05. 14:00 1001 - 0,4
Mo, 20.05. 8:00 1003 + 0,3
Mo, 20.05. 2:00 1003 - 0,3
So, 19.05. 20:00 1003 - 0,6
So, 19.05. 14:00 1004 - 0,6
So, 19.05. 8:00 1006 + 0,4
So, 19.05. 2:00 1006 - 0,7
Ortszeit Luftdruck NN (hPa) Tendenz (hPa in 3 Std.)
Mo, 20.05. 20:20 1000 keine Meldung
Mo, 20.05. 20:00 1001 - 0,2
Mo, 20.05. 19:50 1001 keine Meldung
Mo, 20.05. 19:40 1000 keine Meldung
Mo, 20.05. 19:30 1000 - 0,4
Mo, 20.05. 19:20 1000 keine Meldung
Mo, 20.05. 19:00 1000 - 0,9
Mo, 20.05. 18:30 1001 - 0,9
Mo, 20.05. 18:00 1001 - 0,8
Mo, 20.05. 17:30 1001 - 0,9
Mo, 20.05. 17:00 1001 - 0,8
Ortszeit Schneehöhe (cm)
Mo, 20.05. 20:00 0
Mo, 20.05. 14:00 0
Mo, 20.05. 8:00 0
Mo, 20.05. 2:00 0
So, 19.05. 20:00 0
So, 19.05. 14:00 0
So, 19.05. 8:00 0
So, 19.05. 2:00 0
Ortszeit Schneehöhe (cm)
Mo, 20.05. 20:20 -
Mo, 20.05. 20:00 0
Mo, 20.05. 19:50 -
Mo, 20.05. 19:40 -
Mo, 20.05. 19:30 -
Mo, 20.05. 19:20 -
Mo, 20.05. 19:00 -
Mo, 20.05. 18:30 -
Mo, 20.05. 18:00 -
Mo, 20.05. 17:30 -
Mo, 20.05. 17:00 -
Link zu dieser Seite / Seite empfehlen

Das Wetter in ...